createdAt,value
2023-01-22T02:25:02.218Z,64.40
2023-01-22T02:27:29.708Z,71.20
2023-01-22T02:29:56.999Z,67.10
2023-01-22T02:32:24.176Z,60.20
2023-01-22T02:34:52.365Z,64.30
2023-01-22T02:37:19.516Z,62.60
2023-01-22T02:39:47.914Z,56.80
2023-01-22T02:42:15.211Z,65.50
2023-01-22T02:44:42.426Z,63.00
2023-01-22T02:47:09.653Z,62.70
2023-01-22T02:49:36.899Z,60.90
2023-01-22T02:52:04.201Z,73.80
2023-01-22T02:54:31.443Z,64.90
2023-01-22T02:56:58.639Z,66.20
2023-01-22T02:59:25.969Z,72.50
2023-01-22T03:01:53.072Z,69.70
2023-01-22T03:04:20.200Z,61.30
2023-01-22T03:06:47.500Z,68.30
2023-01-22T03:09:16.339Z,62.30
2023-01-22T03:11:44.714Z,51.40
2023-01-22T03:14:33.536Z,58.00
2023-01-22T03:17:19.419Z,68.30
2023-01-22T03:20:04.997Z,49.50
2023-01-22T03:22:32.509Z,54.60
2023-01-22T03:25:01.595Z,70.00
2023-01-22T03:27:30.071Z,56.50
2023-01-22T03:29:58.337Z,57.10
2023-01-22T03:32:25.900Z,53.50
2023-01-22T03:34:53.994Z,55.10
2023-01-22T03:37:22.031Z,48.90
2023-01-22T03:39:51.177Z,50.60
2023-01-22T03:42:25.159Z,46.80
2023-01-22T03:44:52.267Z,43.40
2023-01-22T03:47:19.823Z,56.60
2023-01-22T03:49:46.925Z,51.80
2023-01-22T03:52:14.011Z,63.60
2023-01-22T03:54:41.266Z,69.70
2023-01-22T03:57:08.973Z,59.60
2023-01-22T03:59:37.930Z,37.60
2023-01-22T04:02:05.303Z,63.70
2023-01-22T04:04:35.301Z,58.00
2023-01-22T04:07:02.740Z,67.70
2023-01-22T04:09:29.910Z,58.40
2023-01-22T04:11:58.020Z,78.80
2023-01-22T04:14:26.286Z,59.10
2023-01-22T04:16:59.256Z,54.10
2023-01-22T04:19:39.896Z,53.10
2023-01-22T04:22:17.856Z,52.40
2023-01-22T04:24:46.019Z,51.60
2023-01-22T04:27:13.222Z,60.90
2023-01-22T04:29:40.342Z,55.40
2023-01-22T04:32:08.290Z,72.00
2023-01-22T04:35:01.020Z,46.30
2023-01-22T04:37:54.362Z,65.70
2023-01-22T04:40:21.496Z,56.40
2023-01-22T04:42:49.658Z,53.80
2023-01-22T04:45:16.962Z,64.00
2023-01-22T04:47:45.102Z,62.30
2023-01-22T04:50:16.894Z,55.40
2023-01-22T04:52:44.316Z,48.90
2023-01-22T04:55:12.110Z,51.00
2023-01-22T04:57:47.578Z,50.00
2023-01-22T05:00:15.478Z,51.70
2023-01-22T05:02:43.030Z,53.70
2023-01-22T05:05:10.354Z,55.10
2023-01-22T05:07:37.555Z,58.80
2023-01-22T05:10:05.105Z,53.90
2023-01-22T05:12:32.280Z,65.70
2023-01-22T05:15:00.878Z,63.00
2023-01-22T05:17:28.025Z,72.40
2023-01-22T05:19:55.743Z,58.00
2023-01-22T05:22:22.957Z,64.10
2023-01-22T05:24:50.084Z,63.70
2023-01-22T05:27:17.853Z,67.00
2023-01-22T05:29:53.338Z,65.30
2023-01-22T05:32:39.177Z,43.10
2023-01-22T05:35:07.140Z,51.30
2023-01-22T05:37:36.793Z,56.70
2023-01-22T05:40:05.586Z,52.40
2023-01-22T05:42:34.736Z,52.30
2023-01-22T05:45:03.206Z,55.10
2023-01-22T05:47:31.997Z,55.50
2023-01-22T05:50:30.553Z,52.20
2023-01-22T05:53:04.683Z,56.70
2023-01-22T05:55:32.716Z,66.20
2023-01-22T05:58:00.766Z,54.90
2023-01-22T06:00:28.352Z,72.40
2023-01-22T06:02:58.037Z,49.70
2023-01-22T06:05:25.991Z,49.70
2023-01-22T06:10:28.977Z,46.10
2023-01-22T10:23:27.535Z,34.00
2023-01-22T10:26:01.263Z,32.70
2023-01-22T10:28:28.408Z,29.70
2023-01-22T10:30:59.139Z,35.40
2023-01-22T10:33:27.604Z,34.10
2023-01-22T10:35:57.033Z,31.80
2023-01-22T10:38:30.129Z,32.20
2023-01-22T10:41:02.039Z,29.70
2023-01-22T10:43:36.745Z,30.60
2023-01-22T10:46:05.669Z,32.20
2023-01-22T10:48:33.364Z,40.20
2023-01-22T10:51:00.658Z,22.60
2023-01-22T10:53:37.643Z,25.60
2023-01-22T10:56:07.092Z,32.10
2023-01-22T10:58:36.417Z,32.20
2023-01-22T11:01:20.392Z,36.30
2023-01-22T11:03:47.562Z,31.80
2023-01-22T11:06:20.317Z,31.50
2023-01-22T11:08:53.440Z,31.80
2023-01-22T11:11:25.174Z,27.90
2023-01-22T11:13:55.383Z,37.20
2023-01-22T11:16:24.055Z,32.90
2023-01-22T11:18:54.135Z,30.70
2023-01-22T11:21:33.034Z,32.30
2023-01-22T11:24:12.201Z,29.20
2023-01-22T11:26:39.335Z,33.90
2023-01-22T11:29:31.119Z,34.90
2023-01-22T11:32:19.391Z,38.80
2023-01-22T11:34:49.511Z,37.60
2023-01-22T11:37:19.425Z,28.50
2023-01-22T11:39:53.815Z,41.80
2023-01-22T11:42:33.042Z,35.20
2023-01-22T11:45:31.485Z,40.50
2023-01-22T11:48:24.212Z,32.90
2023-01-22T11:51:12.782Z,41.50
2023-01-22T11:54:07.707Z,40.70
2023-01-22T11:56:50.349Z,37.20
2023-01-22T11:59:23.515Z,49.50
2023-01-22T12:02:28.122Z,31.30
2023-01-22T12:07:41.954Z,39.90
2023-01-22T12:10:27.180Z,33.90
2023-01-22T12:13:00.633Z,32.60
2023-01-22T12:15:40.061Z,38.30
2023-01-22T12:18:25.991Z,51.50
2023-01-22T12:21:05.766Z,39.30
2023-01-22T12:23:54.557Z,42.70
2023-01-22T12:26:26.976Z,32.30
2023-01-22T12:29:28.460Z,30.70
2023-01-22T12:32:11.078Z,41.50
2023-01-22T12:34:43.413Z,38.30
2023-01-22T12:37:13.785Z,42.20
2023-01-22T12:39:46.620Z,38.90
2023-01-22T12:42:41.337Z,32.90
2023-01-22T12:45:27.844Z,54.00
2023-01-22T12:48:05.766Z,43.30
2023-01-22T12:50:32.982Z,51.90
2023-01-22T12:53:03.990Z,47.40
2023-01-22T12:55:35.374Z,58.20
2023-01-22T12:58:02.681Z,46.70
2023-01-22T13:00:39.376Z,53.60
2023-01-22T13:03:33.077Z,58.40
2023-01-22T13:06:01.987Z,59.80
2023-01-22T13:08:38.147Z,53.50
2023-01-22T13:11:10.655Z,51.60
2023-01-22T13:13:37.699Z,54.60
2023-01-22T13:16:33.387Z,52.90
2023-01-22T13:19:00.882Z,51.50
2023-01-22T13:21:32.492Z,63.40
2023-01-22T13:24:05.657Z,60.70
2023-01-22T13:26:34.603Z,61.80
2023-01-22T13:29:03.790Z,64.20
2023-01-22T13:31:31.016Z,57.40
2023-01-22T13:34:08.976Z,80.50
2023-01-22T13:36:43.984Z,59.30
2023-01-22T13:39:37.409Z,59.20
2023-01-22T13:42:05.252Z,60.30
2023-01-22T13:44:36.939Z,58.60
2023-01-22T13:47:04.142Z,54.70
2023-01-22T13:49:32.447Z,64.50
2023-01-22T13:52:04.748Z,62.50
2023-01-22T13:54:37.106Z,64.50
2023-01-22T13:57:05.630Z,65.00
2023-01-22T13:59:35.310Z,65.50
2023-01-22T14:02:21.904Z,69.00
2023-01-22T14:04:49.355Z,58.00
2023-01-22T14:07:42.901Z,66.60
2023-01-22T14:10:22.211Z,61.80
2023-01-22T14:13:05.897Z,66.00
2023-01-22T14:15:33.327Z,65.80
2023-01-22T14:18:21.436Z,76.10
2023-01-22T14:20:48.895Z,66.30
2023-01-22T14:23:15.941Z,67.90
2023-01-22T14:25:51.040Z,82.50
2023-01-22T14:28:18.241Z,80.10
2023-01-22T14:30:45.924Z,75.00
2023-01-22T14:33:15.308Z,72.20
2023-01-22T14:35:42.707Z,74.10
2023-01-22T14:38:10.000Z,64.80
2023-01-22T14:40:37.179Z,82.40
2023-01-22T14:43:04.321Z,74.50
2023-01-22T14:45:31.540Z,91.50
2023-01-22T14:47:58.894Z,84.30
2023-01-22T14:50:26.012Z,71.80
2023-01-22T14:52:53.257Z,76.10
2023-01-22T14:55:20.364Z,66.40
2023-01-22T14:57:47.767Z,59.90
2023-01-22T15:00:17.052Z,59.30
2023-01-22T15:02:44.451Z,61.60
2023-01-22T15:05:12.281Z,75.70
2023-01-22T15:07:39.535Z,63.70
2023-01-22T15:10:07.793Z,65.10
2023-01-22T15:12:34.950Z,60.60
2023-01-22T15:15:02.171Z,58.30
2023-01-22T15:17:29.334Z,54.30
2023-01-22T15:19:57.413Z,59.40
2023-01-22T15:22:24.597Z,62.20
2023-01-22T15:24:51.778Z,54.70
2023-01-22T15:27:19.097Z,49.80
2023-01-22T15:29:46.411Z,57.40
2023-01-22T15:32:13.822Z,54.70
2023-01-22T15:34:41.005Z,57.50
2023-01-22T15:37:08.174Z,50.10
2023-01-22T15:39:35.461Z,57.60
2023-01-22T15:42:02.714Z,45.50
2023-01-22T15:44:29.921Z,52.00
2023-01-22T15:47:01.342Z,48.90
2023-01-22T15:49:28.584Z,51.80
2023-01-22T15:51:55.762Z,45.30
2023-01-22T15:54:25.639Z,47.20
2023-01-22T15:56:52.977Z,51.50
2023-01-22T15:59:20.227Z,47.70
2023-01-22T16:01:48.084Z,45.90
2023-01-22T16:04:15.300Z,52.40
2023-01-22T16:06:42.400Z,47.40
2023-01-22T16:09:09.585Z,53.80
2023-01-22T16:11:37.152Z,53.00
2023-01-22T16:14:04.318Z,53.10
2023-01-22T16:16:33.524Z,53.90
2023-01-22T16:19:01.652Z,50.00
2023-01-22T16:21:28.945Z,52.00
2023-01-22T16:23:58.479Z,55.00
2023-01-22T16:26:31.083Z,46.60
2023-01-22T16:28:59.368Z,53.70
2023-01-22T16:31:28.894Z,52.10
2023-01-22T16:33:57.743Z,50.90
2023-01-22T16:36:26.963Z,49.50
2023-01-22T16:38:54.176Z,55.30
2023-01-22T16:41:29.193Z,55.30
2023-01-22T16:44:19.295Z,62.50
2023-01-22T16:46:49.735Z,55.70
2023-01-22T16:49:24.743Z,49.90
2023-01-22T16:51:53.524Z,49.90
2023-01-22T16:54:28.595Z,52.50
2023-01-22T16:56:56.666Z,51.10
2023-01-22T16:59:24.392Z,57.60
2023-01-22T17:01:51.644Z,54.70
2023-01-22T17:04:18.906Z,57.90
2023-01-22T17:06:54.491Z,57.80
2023-01-22T17:09:25.847Z,50.20
2023-01-22T17:11:54.159Z,56.40
2023-01-22T17:14:22.433Z,54.80
2023-01-22T17:16:49.662Z,56.00
2023-01-22T17:19:17.002Z,57.00
2023-01-22T17:21:44.301Z,51.30
2023-01-22T17:24:12.003Z,47.70
2023-01-22T17:26:39.762Z,53.80
2023-01-22T17:29:09.430Z,50.70
2023-01-22T17:31:37.337Z,51.10
2023-01-22T17:34:04.884Z,49.10
2023-01-22T17:36:32.141Z,47.40
2023-01-22T17:39:00.278Z,53.00
2023-01-22T17:41:27.485Z,46.40
2023-01-22T17:43:56.212Z,49.00
2023-01-22T17:46:29.339Z,46.80
2023-01-22T17:48:56.505Z,48.10
2023-01-22T17:51:25.625Z,42.60
2023-01-22T17:53:53.330Z,44.70
2023-01-22T17:56:26.240Z,37.40
2023-01-22T17:58:55.219Z,46.40
2023-01-22T18:01:24.181Z,40.60
2023-01-22T18:03:51.604Z,40.80
2023-01-22T18:06:18.807Z,38.30
2023-01-22T18:08:45.992Z,40.50
2023-01-22T18:11:15.450Z,39.90
2023-01-22T22:22:05.227Z,34.80
2023-01-22T22:24:32.616Z,39.40
2023-01-22T22:26:59.755Z,40.90
2023-01-22T22:29:26.982Z,38.60
2023-01-22T22:31:54.125Z,42.70
2023-01-22T22:34:21.366Z,45.90
2023-01-22T22:36:48.667Z,37.30
2023-01-22T22:39:15.738Z,42.40
2023-01-22T22:41:42.872Z,41.90
2023-01-22T22:44:10.977Z,43.20
2023-01-22T22:46:38.847Z,40.80
2023-01-22T22:49:06.435Z,37.80
2023-01-22T22:51:35.350Z,37.70
2023-01-22T22:54:04.863Z,35.40
2023-01-22T22:56:32.167Z,38.90
2023-01-22T22:59:01.056Z,37.90
2023-01-22T23:01:28.529Z,40.20
2023-01-22T23:03:55.781Z,40.60
2023-01-22T23:06:26.442Z,38.20
2023-01-22T23:09:08.157Z,45.40
2023-01-22T23:11:36.434Z,33.30
2023-01-22T23:14:03.845Z,40.50
2023-01-22T23:16:33.590Z,38.20
2023-01-22T23:19:01.966Z,39.80
2023-01-22T23:21:29.555Z,33.00
2023-01-22T23:23:56.841Z,35.60
2023-01-22T23:26:28.299Z,38.00
2023-01-22T23:29:03.642Z,36.40
2023-01-22T23:31:31.935Z,44.20
2023-01-22T23:34:01.536Z,32.10
2023-01-22T23:36:28.690Z,42.60
2023-01-22T23:38:55.864Z,31.80
2023-01-22T23:41:23.148Z,36.60
2023-01-22T23:43:50.500Z,30.90
2023-01-22T23:46:19.704Z,27.90
2023-01-22T23:48:47.271Z,44.60
2023-01-22T23:51:15.180Z,28.00
2023-01-22T23:53:43.978Z,32.00
2023-01-22T23:56:11.965Z,35.10
2023-01-22T23:58:39.375Z,35.80
